Time;durP1;ratioP1;P1;durP2;ratioP2;P2;SDS_P1;SDS_P2;PMS_P1;PMS_P2;Temp;Humidity;BMP_temperature;BMP_pressure;BME280_temperature;BME280_humidity;BME280_pressure;Samples;Min_cycle;Max_cycle;Signal;HPM_P1;HPM_P2
2022/03/07 00:01:43;;;;;;;12.17;9.27;;;;;;;;;;4978616;28;20539;-81
2022/03/07 00:04:14;;;;;;;13.23;10.47;;;;;;;;;;4977095;28;20189;-81
2022/03/07 00:06:43;;;;;;;12.17;10.13;;;;;;;;;;4978521;28;20199;-81
2022/03/07 00:09:11;;;;;;;11.83;9.87;;;;;;;;;;4979030;28;20669;-81
2022/03/07 00:11:37;;;;;;;11.90;9.93;;;;;;;;;;4961506;28;20227;-81
2022/03/07 00:14:06;;;;;;;13.37;10.70;;;;;;;;;;4961164;28;20180;-80
2022/03/07 00:16:32;;;;;;;11.97;9.93;;;;;;;;;;4978723;28;20251;-80
2022/03/07 00:19:02;;;;;;;12.97;10.00;;;;;;;;;;4978183;28;20215;-83
2022/03/07 00:21:31;;;;;;;13.97;9.90;;;;;;;;;;4978054;28;20176;-81
2022/03/07 00:23:57;;;;;;;13.00;10.37;;;;;;;;;;4978346;28;20176;-80
2022/03/07 00:26:25;;;;;;;11.13;10.00;;;;;;;;;;4977784;28;20264;-82
2022/03/07 00:28:51;;;;;;;12.83;10.07;;;;;;;;;;4977729;28;20189;-80
2022/03/07 00:31:24;;;;;;;15.67;10.17;;;;;;;;;;4978340;28;20177;-81
2022/03/07 00:33:50;;;;;;;15.50;10.30;;;;;;;;;;4977289;28;20280;-81
2022/03/07 00:36:20;;;;;;;10.77;9.67;;;;;;;;;;4977689;28;20187;-80
2022/03/07 00:38:49;;;;;;;12.87;10.20;;;;;;;;;;4977877;28;20208;-80
2022/03/07 00:41:16;;;;;;;11.77;9.37;;;;;;;;;;5003704;23;20181;-81
2022/03/07 00:43:42;;;;;;;10.47;9.33;;;;;;;;;;4982027;28;20265;-81
2022/03/07 00:46:08;;;;;;;11.77;9.60;;;;;;;;;;4985080;28;20189;-82
2022/03/07 00:48:34;;;;;;;10.83;9.83;;;;;;;;;;4969070;28;20180;-81
2022/03/07 00:51:00;;;;;;;11.17;9.03;;;;;;;;;;4956619;28;20189;-82
2022/03/07 00:53:27;;;;;;;11.13;10.00;;;;;;;;;;4992783;28;20294;-82
2022/03/07 00:55:54;;;;;;;11.23;10.13;;;;;;;;;;5001443;28;20651;-81
2022/03/07 00:58:20;;;;;;;10.77;9.20;;;;;;;;;;5001388;28;20269;-81
2022/03/07 01:00:46;;;;;;;10.50;9.40;;;;;;;;;;5001748;28;20267;-81
2022/03/07 01:03:13;;;;;;;12.53;9.60;;;;;;;;;;5001979;28;20262;-81
2022/03/07 01:05:42;;;;;;;13.17;9.80;;;;;;;;;;4984136;28;20176;-81
2022/03/07 01:08:09;;;;;;;10.73;9.67;;;;;;;;;;5000900;28;20179;-81
2022/03/07 01:10:35;;;;;;;10.63;9.53;;;;;;;;;;4983106;28;20215;-81
2022/03/07 01:13:02;;;;;;;10.33;9.33;;;;;;;;;;5000411;28;20234;-80
2022/03/07 01:15:28;;;;;;;12.03;9.60;;;;;;;;;;4993759;28;20674;-81
2022/03/07 01:17:54;;;;;;;10.30;9.30;;;;;;;;;;5000117;28;20179;-81
2022/03/07 01:20:21;;;;;;;10.57;9.47;;;;;;;;;;4983720;28;20203;-81
2022/03/07 01:22:47;;;;;;;9.93;8.93;;;;;;;;;;4983644;28;20207;-82
2022/03/07 01:25:14;;;;;;;12.10;9.83;;;;;;;;;;5000762;28;20183;-80
2022/03/07 01:27:40;;;;;;;10.53;9.47;;;;;;;;;;4979442;28;20173;-81
2022/03/07 01:30:07;;;;;;;11.10;10.00;;;;;;;;;;4992380;28;20188;-80
2022/03/07 01:32:33;;;;;;;9.13;8.23;;;;;;;;;;4997767;28;20204;-81
2022/03/07 01:34:59;;;;;;;10.63;9.37;;;;;;;;;;4980483;28;20563;-81
2022/03/07 01:37:25;;;;;;;13.17;9.30;;;;;;;;;;4998898;28;20644;-80
2022/03/07 01:39:51;;;;;;;11.13;9.93;;;;;;;;;;4998812;28;20290;-81
2022/03/07 01:42:19;;;;;;;10.43;9.40;;;;;;;;;;4998654;28;20295;-81
2022/03/07 01:44:45;;;;;;;10.50;9.40;;;;;;;;;;5000041;28;20207;-81
2022/03/07 01:47:11;;;;;;;11.03;9.93;;;;;;;;;;4982997;28;20184;-81
2022/03/07 01:49:37;;;;;;;10.40;9.40;;;;;;;;;;5002111;28;20184;-81
2022/03/07 01:52:04;;;;;;;11.43;10.13;;;;;;;;;;4994189;28;20212;-80
2022/03/07 01:54:30;;;;;;;10.93;9.80;;;;;;;;;;4989436;28;20187;-80
2022/03/07 01:56:56;;;;;;;10.53;9.43;;;;;;;;;;5000759;28;20266;-81
2022/03/07 01:59:24;;;;;;;10.97;9.40;;;;;;;;;;4983854;28;20263;-81
2022/03/07 02:01:53;;;;;;;11.20;9.67;;;;;;;;;;5001642;28;20668;-81
2022/03/07 02:04:19;;;;;;;10.63;9.47;;;;;;;;;;4976723;28;20177;-81
2022/03/07 02:06:46;;;;;;;11.53;10.37;;;;;;;;;;4992600;28;20191;-80
2022/03/07 02:09:13;;;;;;;10.33;9.43;;;;;;;;;;5001104;28;20193;-80
2022/03/07 02:11:39;;;;;;;10.07;9.13;;;;;;;;;;4998445;28;20675;-81
2022/03/07 02:14:15;;;;;;;10.13;9.23;;;;;;;;;;4972093;28;20176;-81
2022/03/07 02:16:42;;;;;;;10.37;9.30;;;;;;;;;;4980685;28;20287;-80
2022/03/07 02:19:08;;;;;;;10.73;9.73;;;;;;;;;;4983371;28;20281;-80
2022/03/07 02:21:35;;;;;;;11.10;10.00;;;;;;;;;;4996236;28;20204;-81
2022/03/07 02:24:01;;;;;;;10.97;9.83;;;;;;;;;;4990521;28;20215;-82
2022/03/07 02:26:27;;;;;;;11.13;9.87;;;;;;;;;;4997324;28;20230;-80
2022/03/07 02:28:53;;;;;;;10.93;9.93;;;;;;;;;;4998010;28;20180;-81
2022/03/07 02:31:20;;;;;;;11.50;10.33;;;;;;;;;;4980053;28;20236;-81
2022/03/07 02:33:47;;;;;;;11.67;10.47;;;;;;;;;;4980632;28;20184;-81
2022/03/07 02:36:13;;;;;;;12.97;9.97;;;;;;;;;;4996948;28;20189;-80
2022/03/07 02:38:39;;;;;;;11.07;9.53;;;;;;;;;;4998007;28;20200;-80
2022/03/07 02:41:05;;;;;;;11.70;10.33;;;;;;;;;;4997984;28;20180;-80
2022/03/07 02:43:31;;;;;;;10.43;9.43;;;;;;;;;;4968821;28;20192;-81
2022/03/07 02:45:58;;;;;;;11.50;10.40;;;;;;;;;;4959478;28;20352;-80
2022/03/07 02:48:25;;;;;;;11.27;10.10;;;;;;;;;;4959503;28;20323;-81
2022/03/07 02:50:51;;;;;;;14.10;9.93;;;;;;;;;;4977247;28;20188;-81
2022/03/07 02:53:17;;;;;;;12.20;10.73;;;;;;;;;;4996892;28;20207;-81
2022/03/07 02:55:43;;;;;;;11.53;10.27;;;;;;;;;;4997779;28;20184;-81
2022/03/07 02:58:09;;;;;;;11.20;9.93;;;;;;;;;;4982388;28;20191;-81
2022/03/07 03:00:35;;;;;;;11.70;9.77;;;;;;;;;;5002343;28;20191;-81
2022/03/07 03:03:01;;;;;;;11.37;9.63;;;;;;;;;;5002926;28;20211;-80
2022/03/07 03:05:27;;;;;;;11.63;10.50;;;;;;;;;;4985519;28;20175;-81
2022/03/07 03:07:53;;;;;;;13.43;11.00;;;;;;;;;;5003354;28;20180;-81
2022/03/07 03:10:20;;;;;;;11.60;10.40;;;;;;;;;;5002833;28;20208;-80
2022/03/07 03:12:47;;;;;;;12.83;11.53;;;;;;;;;;5002725;28;20204;-80
2022/03/07 03:15:13;;;;;;;11.60;10.50;;;;;;;;;;4977654;28;20187;-80
2022/03/07 03:17:40;;;;;;;11.67;10.50;;;;;;;;;;5003102;28;20647;-80
2022/03/07 03:20:06;;;;;;;13.93;10.17;;;;;;;;;;5002932;28;20206;-80
2022/03/07 03:22:32;;;;;;;12.33;11.03;;;;;;;;;;4985935;28;20255;-80
2022/03/07 03:24:58;;;;;;;11.93;10.83;;;;;;;;;;4969982;28;20180;-80
2022/03/07 03:27:24;;;;;;;12.37;10.07;;;;;;;;;;4985024;28;20172;-80
2022/03/07 03:29:53;;;;;;;11.70;10.43;;;;;;;;;;5002748;28;20641;-80
2022/03/07 03:32:19;;;;;;;12.67;10.80;;;;;;;;;;5001821;28;20262;-80
2022/03/07 03:34:45;;;;;;;12.80;11.37;;;;;;;;;;5002678;28;20184;-81
2022/03/07 03:37:12;;;;;;;12.47;10.80;;;;;;;;;;4984452;28;20180;-81
2022/03/07 03:39:38;;;;;;;12.57;11.27;;;;;;;;;;4967573;28;20214;-81
2022/03/07 03:42:05;;;;;;;11.90;10.70;;;;;;;;;;5000774;28;20215;-81
2022/03/07 03:44:31;;;;;;;12.40;10.80;;;;;;;;;;4999403;28;20184;-80
2022/03/07 03:46:57;;;;;;;12.30;11.00;;;;;;;;;;4999331;28;20180;-81
2022/03/07 03:49:23;;;;;;;12.60;10.97;;;;;;;;;;4982777;28;20267;-81
2022/03/07 03:51:49;;;;;;;11.87;10.80;;;;;;;;;;4981985;28;20204;-81
2022/03/07 03:54:15;;;;;;;13.13;10.97;;;;;;;;;;4999357;28;20199;-81
2022/03/07 03:56:41;;;;;;;13.47;10.43;;;;;;;;;;4988042;28;20743;-81
2022/03/07 03:59:07;;;;;;;11.97;10.70;;;;;;;;;;4991985;28;20679;-81
2022/03/07 04:01:34;;;;;;;13.43;11.47;;;;;;;;;;4991964;28;20199;-80
2022/03/07 04:04:00;;;;;;;13.13;11.63;;;;;;;;;;4989167;28;20234;-81
2022/03/07 04:06:26;;;;;;;13.30;11.30;;;;;;;;;;5001282;28;20226;-80
2022/03/07 04:08:53;;;;;;;13.07;11.20;;;;;;;;;;4983061;28;20183;-80
2022/03/07 04:11:20;;;;;;;11.80;10.60;;;;;;;;;;4997115;28;20196;-81
2022/03/07 04:13:47;;;;;;;12.93;11.63;;;;;;;;;;4980886;28;20193;-80
2022/03/07 04:16:14;;;;;;;13.27;10.97;;;;;;;;;;4981347;28;20186;-80
2022/03/07 04:18:40;;;;;;;13.13;11.27;;;;;;;;;;4982447;28;20215;-81
2022/03/07 04:21:06;;;;;;;13.20;11.80;;;;;;;;;;5000097;28;20838;-80
2022/03/07 04:23:33;;;;;;;13.37;11.90;;;;;;;;;;4999691;28;20185;-81
2022/03/07 04:25:59;;;;;;;15.83;12.23;;;;;;;;;;4999420;28;20741;-80
2022/03/07 04:28:25;;;;;;;12.73;11.27;;;;;;;;;;4982159;28;20180;-80
2022/03/07 04:30:51;;;;;;;18.90;12.90;;;;;;;;;;4973516;28;20235;-80
2022/03/07 04:33:17;;;;;;;16.47;11.97;;;;;;;;;;4994747;28;20204;-80
2022/03/07 04:35:43;;;;;;;14.23;11.30;;;;;;;;;;4999416;28;20187;-80
2022/03/07 04:38:09;;;;;;;13.03;11.70;;;;;;;;;;4999474;28;20557;-81
2022/03/07 04:40:35;;;;;;;13.13;11.77;;;;;;;;;;4981650;28;20652;-80
2022/03/07 04:43:01;;;;;;;13.53;12.20;;;;;;;;;;4998835;28;20290;-80
2022/03/07 04:45:27;;;;;;;16.63;12.20;;;;;;;;;;4981657;28;20183;-80
2022/03/07 04:47:53;;;;;;;14.40;12.83;;;;;;;;;;4981624;28;20190;-80
2022/03/07 04:50:19;;;;;;;15.27;12.30;;;;;;;;;;4983542;28;20188;-80
2022/03/07 04:52:45;;;;;;;16.90;12.90;;;;;;;;;;4999042;28;20282;-80
2022/03/07 04:55:12;;;;;;;14.77;12.20;;;;;;;;;;4980919;28;20183;-80
2022/03/07 04:57:38;;;;;;;13.63;12.17;;;;;;;;;;4998403;28;20258;-80
2022/03/07 05:00:06;;;;;;;14.70;12.47;;;;;;;;;;4981001;28;20288;-80
2022/03/07 05:02:32;;;;;;;14.13;12.40;;;;;;;;;;4975361;28;20676;-80
2022/03/07 05:04:58;;;;;;;14.60;12.67;;;;;;;;;;4988720;28;20197;-80
2022/03/07 05:07:24;;;;;;;13.73;12.13;;;;;;;;;;4979511;28;20200;-80
2022/03/07 05:09:50;;;;;;;15.90;12.60;;;;;;;;;;4979495;28;20187;-80
2022/03/07 05:12:16;;;;;;;15.30;12.53;;;;;;;;;;4997715;28;20262;-80
2022/03/07 05:14:42;;;;;;;13.47;12.07;;;;;;;;;;4973130;28;20212;-80
2022/03/07 05:17:08;;;;;;;19.80;12.80;;;;;;;;;;4997538;28;20539;-80
2022/03/07 05:19:34;;;;;;;16.97;12.90;;;;;;;;;;4964262;28;20239;-80
2022/03/07 05:22:01;;;;;;;15.33;12.27;;;;;;;;;;4998044;28;20207;-80
2022/03/07 05:24:27;;;;;;;16.40;13.40;;;;;;;;;;4980338;28;20188;-80
2022/03/07 05:26:53;;;;;;;14.50;13.00;;;;;;;;;;4998011;28;20202;-80
2022/03/07 05:29:20;;;;;;;14.70;12.70;;;;;;;;;;4998358;28;20631;-80
2022/03/07 05:31:46;;;;;;;14.93;12.90;;;;;;;;;;4997513;28;20227;-80
2022/03/07 05:34:12;;;;;;;17.90;13.40;;;;;;;;;;4980676;28;20627;-80
2022/03/07 05:36:38;;;;;;;15.97;13.67;;;;;;;;;;4998362;28;20188;-80
2022/03/07 05:39:04;;;;;;;15.87;13.87;;;;;;;;;;4997982;28;20227;-80
2022/03/07 05:41:30;;;;;;;15.00;12.87;;;;;;;;;;4999079;28;20612;-80
2022/03/07 05:43:56;;;;;;;18.10;13.70;;;;;;;;;;4980893;28;20172;-80
2022/03/07 05:46:22;;;;;;;14.53;13.07;;;;;;;;;;4998010;28;20175;-80
2022/03/07 05:48:49;;;;;;;16.00;14.00;;;;;;;;;;4980167;28;20266;-80
2022/03/07 05:51:22;;;;;;;15.50;13.77;;;;;;;;;;4982268;28;20185;-80
2022/03/07 05:53:48;;;;;;;16.23;13.70;;;;;;;;;;4976660;28;20238;-80
2022/03/07 05:56:14;;;;;;;16.60;14.13;;;;;;;;;;4992931;28;20184;-80
2022/03/07 05:58:40;;;;;;;17.23;13.47;;;;;;;;;;4992333;28;20210;-80
2022/03/07 06:01:06;;;;;;;18.67;13.87;;;;;;;;;;4980011;28;20624;-80
2022/03/07 06:03:32;;;;;;;17.27;13.30;;;;;;;;;;4996714;28;20254;-80
2022/03/07 06:05:58;;;;;;;15.17;12.77;;;;;;;;;;4997163;28;20203;-79
2022/03/07 06:08:24;;;;;;;14.57;13.07;;;;;;;;;;4997318;28;20183;-80
2022/03/07 06:10:50;;;;;;;13.80;12.33;;;;;;;;;;4979238;28;20207;-80
2022/03/07 06:13:16;;;;;;;18.20;12.93;;;;;;;;;;4994514;28;20196;-80
2022/03/07 06:15:43;;;;;;;13.60;12.13;;;;;;;;;;4991314;28;20742;-80
2022/03/07 06:18:10;;;;;;;13.90;12.43;;;;;;;;;;4997307;28;20659;-81
2022/03/07 06:20:36;;;;;;;16.70;11.93;;;;;;;;;;4997771;28;20199;-80
2022/03/07 06:23:04;;;;;;;15.43;12.10;;;;;;;;;;4982645;28;20219;-80
2022/03/07 06:25:30;;;;;;;13.03;11.63;;;;;;;;;;4997464;28;20168;-80
2022/03/07 06:27:56;;;;;;;13.93;12.23;;;;;;;;;;4998164;28;20670;-81
2022/03/07 06:30:22;;;;;;;13.57;11.63;;;;;;;;;;4998142;28;20567;-81
2022/03/07 06:32:48;;;;;;;14.20;12.40;;;;;;;;;;4981117;28;20211;-80
2022/03/07 06:35:14;;;;;;;13.90;11.97;;;;;;;;;;4980567;28;20268;-80
2022/03/07 06:37:51;;;;;;;12.87;11.43;;;;;;;;;;4981481;28;20211;-81
2022/03/07 06:40:17;;;;;;;13.43;12.03;;;;;;;;;;4981132;28;20259;-80
2022/03/07 06:42:44;;;;;;;12.90;11.10;;;;;;;;;;5021806;23;20231;-82
2022/03/07 06:45:12;;;;;;;16.67;11.97;;;;;;;;;;5006058;28;20567;-82
2022/03/07 06:47:39;;;;;;;18.37;12.47;;;;;;;;;;4999776;28;20176;-81
2022/03/07 06:50:05;;;;;;;14.50;12.57;;;;;;;;;;5015019;28;20654;-81
2022/03/07 06:52:31;;;;;;;14.13;11.67;;;;;;;;;;4992956;28;20254;-80
2022/03/07 06:54:57;;;;;;;17.97;11.67;;;;;;;;;;4999516;28;20183;-81
2022/03/07 06:57:23;;;;;;;15.87;12.63;;;;;;;;;;4999243;28;20190;-80
2022/03/07 06:59:49;;;;;;;13.80;11.90;;;;;;;;;;5000321;28;20215;-81
2022/03/07 07:02:16;;;;;;;17.30;12.73;;;;;;;;;;5000191;28;20663;-80
2022/03/07 07:04:42;;;;;;;16.43;12.97;;;;;;;;;;4991477;28;20188;-81
2022/03/07 07:07:08;;;;;;;22.47;13.17;;;;;;;;;;4992065;28;20185;-81
2022/03/07 07:09:34;;;;;;;14.20;11.80;;;;;;;;;;4999649;28;20180;-79
2022/03/07 07:12:00;;;;;;;13.90;12.43;;;;;;;;;;4999504;28;20195;-81
2022/03/07 07:14:26;;;;;;;16.97;13.10;;;;;;;;;;5000267;28;20629;-79
2022/03/07 07:16:53;;;;;;;16.77;12.67;;;;;;;;;;5004157;28;20258;-79
2022/03/07 07:19:19;;;;;;;15.83;12.97;;;;;;;;;;5005697;28;20199;-79
2022/03/07 07:21:45;;;;;;;17.17;12.93;;;;;;;;;;5005423;28;20191;-80
2022/03/07 07:24:11;;;;;;;18.30;13.23;;;;;;;;;;4984235;28;20180;-81
2022/03/07 07:26:37;;;;;;;17.03;12.93;;;;;;;;;;5001554;28;20184;-79
2022/03/07 07:29:03;;;;;;;17.93;13.60;;;;;;;;;;5002097;28;20639;-80
2022/03/07 07:31:29;;;;;;;16.53;14.20;;;;;;;;;;5005144;28;20187;-79
2022/03/07 07:33:55;;;;;;;15.53;13.93;;;;;;;;;;5005892;28;20651;-80
2022/03/07 07:36:21;;;;;;;15.93;13.37;;;;;;;;;;5004592;28;20238;-81
2022/03/07 07:38:47;;;;;;;16.63;13.93;;;;;;;;;;4985664;28;20203;-80
2022/03/07 07:41:13;;;;;;;19.00;14.00;;;;;;;;;;5001442;28;20180;-80
2022/03/07 07:43:39;;;;;;;16.97;14.43;;;;;;;;;;4983023;28;20220;-81
2022/03/07 07:46:05;;;;;;;18.93;13.80;;;;;;;;;;4994357;28;20183;-80
2022/03/07 07:48:31;;;;;;;16.13;14.03;;;;;;;;;;4995031;28;20188;-79
2022/03/07 07:50:58;;;;;;;17.30;13.83;;;;;;;;;;4990417;28;20263;-80
2022/03/07 07:53:23;;;;;;;26.17;13.43;;;;;;;;;;5012757;28;20183;-79
2022/03/07 07:55:50;;;;;;;18.07;13.93;;;;;;;;;;5010748;28;20187;-79
2022/03/07 07:58:15;;;;;;;18.10;14.20;;;;;;;;;;4997973;28;20188;-79
2022/03/07 08:00:41;;;;;;;18.40;14.33;;;;;;;;;;4997078;28;20183;-80
2022/03/07 08:03:08;;;;;;;19.87;14.87;;;;;;;;;;5005992;28;20197;-81
2022/03/07 08:05:34;;;;;;;17.43;13.77;;;;;;;;;;4990364;28;20191;-80
2022/03/07 08:08:00;;;;;;;17.80;14.23;;;;;;;;;;5003798;28;20174;-81
2022/03/07 08:10:26;;;;;;;21.87;14.30;;;;;;;;;;4987191;28;20211;-81
2022/03/07 08:12:52;;;;;;;16.17;13.60;;;;;;;;;;5003457;28;20199;-81
2022/03/07 08:15:18;;;;;;;19.53;14.63;;;;;;;;;;5002355;28;20274;-81
2022/03/07 08:17:46;;;;;;;17.07;13.70;;;;;;;;;;4983975;28;20184;-79
2022/03/07 08:20:15;;;;;;;16.83;13.37;;;;;;;;;;5000727;28;20204;-82
2022/03/07 08:22:43;;;;;;;20.17;14.47;;;;;;;;;;5000564;28;20204;-81
2022/03/07 08:25:09;;;;;;;16.53;14.17;;;;;;;;;;5004344;28;20188;-81
2022/03/07 08:27:35;;;;;;;17.57;13.93;;;;;;;;;;4978151;28;20187;-81
2022/03/07 08:30:03;;;;;;;15.97;13.27;;;;;;;;;;4998645;28;20187;-81
2022/03/07 08:32:29;;;;;;;16.87;14.10;;;;;;;;;;4984512;28;20200;-82
2022/03/07 08:34:57;;;;;;;16.80;14.10;;;;;;;;;;5001104;28;20198;-80
2022/03/07 08:37:23;;;;;;;21.83;16.00;;;;;;;;;;4999400;28;20258;-81
2022/03/07 08:39:49;;;;;;;16.37;13.40;;;;;;;;;;5000989;28;20199;-79
2022/03/07 08:42:15;;;;;;;17.17;14.23;;;;;;;;;;5001723;28;20211;-81
2022/03/07 08:44:41;;;;;;;17.33;14.00;;;;;;;;;;5001536;28;20180;-80
2022/03/07 08:47:07;;;;;;;17.93;14.20;;;;;;;;;;4998345;28;20180;-81
2022/03/07 08:49:33;;;;;;;17.80;14.37;;;;;;;;;;4990288;28;20187;-80
2022/03/07 08:51:59;;;;;;;18.00;13.77;;;;;;;;;;4982969;28;20280;-81
2022/03/07 08:54:25;;;;;;;18.00;14.23;;;;;;;;;;5000922;28;20738;-81
2022/03/07 08:56:51;;;;;;;17.70;15.00;;;;;;;;;;4999890;28;20212;-81
2022/03/07 08:59:19;;;;;;;15.67;13.87;;;;;;;;;;4996951;28;20233;-81
2022/03/07 09:01:45;;;;;;;16.93;14.27;;;;;;;;;;5001547;28;20180;-81
2022/03/07 09:04:11;;;;;;;19.03;15.57;;;;;;;;;;4980642;28;20190;-81
2022/03/07 09:06:37;;;;;;;22.73;14.47;;;;;;;;;;4996214;28;20678;-81
2022/03/07 09:09:03;;;;;;;18.17;14.50;;;;;;;;;;4999909;28;20204;-81
2022/03/07 09:11:29;;;;;;;18.60;14.80;;;;;;;;;;4999854;28;20191;-81
2022/03/07 09:13:55;;;;;;;17.57;14.27;;;;;;;;;;5001538;28;20200;-80
2022/03/07 09:16:21;;;;;;;23.37;14.53;;;;;;;;;;5001396;28;20658;-81
2022/03/07 09:18:47;;;;;;;18.13;14.37;;;;;;;;;;4997724;28;20194;-81
2022/03/07 09:21:13;;;;;;;17.13;14.20;;;;;;;;;;5001036;28;20263;-81
2022/03/07 09:23:39;;;;;;;18.20;14.80;;;;;;;;;;4983062;28;20235;-81
2022/03/07 09:26:06;;;;;;;16.33;14.27;;;;;;;;;;4999666;28;20187;-79
2022/03/07 09:28:33;;;;;;;16.73;14.70;;;;;;;;;;4996789;28;20192;-80
2022/03/07 09:30:59;;;;;;;18.70;15.07;;;;;;;;;;5000238;28;20185;-81
2022/03/07 09:33:25;;;;;;;24.27;16.13;;;;;;;;;;5001210;28;20208;-81
2022/03/07 09:35:52;;;;;;;20.80;15.13;;;;;;;;;;5001854;28;20183;-81
2022/03/07 09:38:18;;;;;;;18.77;14.67;;;;;;;;;;5000836;28;20191;-80
2022/03/07 09:40:44;;;;;;;18.17;14.67;;;;;;;;;;5000947;28;20177;-81
2022/03/07 09:43:10;;;;;;;15.70;13.07;;;;;;;;;;4999993;28;20639;-81
2022/03/07 09:45:36;;;;;;;17.57;14.03;;;;;;;;;;5000971;28;20183;-80
2022/03/07 09:48:05;;;;;;;18.63;14.73;;;;;;;;;;5000603;28;20597;-80
2022/03/07 09:50:31;;;;;;;20.50;13.93;;;;;;;;;;5002529;28;20200;-80
2022/03/07 09:52:57;;;;;;;19.50;14.73;;;;;;;;;;4996875;28;20200;-80
2022/03/07 09:55:25;;;;;;;19.00;15.00;;;;;;;;;;4989511;28;20679;-80
2022/03/07 09:57:51;;;;;;;17.17;14.43;;;;;;;;;;5000008;28;20191;-80
2022/03/07 10:00:18;;;;;;;17.30;14.00;;;;;;;;;;4996883;28;20560;-80
2022/03/07 10:02:57;;;;;;;19.87;14.20;;;;;;;;;;4997681;28;20274;-81
2022/03/07 10:05:27;;;;;;;20.40;14.97;;;;;;;;;;4996586;28;20224;-81
2022/03/07 10:07:53;;;;;;;17.50;13.77;;;;;;;;;;4998177;28;20180;-81
2022/03/07 10:10:21;;;;;;;20.17;15.03;;;;;;;;;;5000113;28;20227;-81
2022/03/07 10:12:48;;;;;;;18.67;14.83;;;;;;;;;;4980314;28;20195;-81
2022/03/07 10:15:15;;;;;;;14.87;13.30;;;;;;;;;;4981242;28;20194;-81
2022/03/07 10:17:47;;;;;;;17.40;13.93;;;;;;;;;;4999181;28;20546;-80
2022/03/07 10:20:13;;;;;;;17.80;13.97;;;;;;;;;;4973296;28;20172;-79
2022/03/07 10:22:51;;;;;;;19.00;14.70;;;;;;;;;;4999221;28;20284;-82
2022/03/07 10:25:21;;;;;;;17.03;13.87;;;;;;;;;;4981678;28;20183;-79
2022/03/07 10:27:49;;;;;;;15.83;13.87;;;;;;;;;;4994993;28;20189;-81
2022/03/07 10:30:18;;;;;;;17.57;13.57;;;;;;;;;;4997383;28;20620;-81
2022/03/07 10:32:51;;;;;;;17.63;14.10;;;;;;;;;;5000677;28;20198;-79
2022/03/07 10:35:23;;;;;;;19.57;14.27;;;;;;;;;;4999579;28;20172;-80
2022/03/07 10:37:49;;;;;;;15.33;12.77;;;;;;;;;;4992785;28;20183;-79
2022/03/07 10:40:20;;;;;;;18.60;14.50;;;;;;;;;;5000576;28;20201;-79
2022/03/07 10:42:46;;;;;;;17.70;13.90;;;;;;;;;;5000541;28;20217;-79
2022/03/07 10:45:13;;;;;;;16.13;13.57;;;;;;;;;;4999225;28;20670;-80
2022/03/07 10:47:39;;;;;;;17.87;14.33;;;;;;;;;;4999551;28;20185;-80
2022/03/07 10:50:05;;;;;;;16.73;14.07;;;;;;;;;;4995535;28;20206;-80
2022/03/07 10:52:36;;;;;;;17.43;14.03;;;;;;;;;;4997020;28;20210;-79
2022/03/07 10:55:03;;;;;;;15.27;13.67;;;;;;;;;;4997915;28;20209;-79
2022/03/07 10:57:29;;;;;;;15.57;14.03;;;;;;;;;;4999084;28;20185;-79
2022/03/07 10:59:55;;;;;;;18.73;14.53;;;;;;;;;;4999695;28;20192;-82
2022/03/07 11:02:21;;;;;;;19.67;14.93;;;;;;;;;;4998800;28;20230;-80
2022/03/07 11:04:48;;;;;;;20.40;14.17;;;;;;;;;;4998313;28;20180;-79
2022/03/07 11:07:15;;;;;;;17.73;13.83;;;;;;;;;;4998258;28;20191;-79
2022/03/07 11:09:42;;;;;;;16.50;13.30;;;;;;;;;;4998594;28;20289;-81
2022/03/07 11:12:12;;;;;;;16.70;14.60;;;;;;;;;;4998733;28;20267;-81
2022/03/07 11:14:42;;;;;;;16.83;13.90;;;;;;;;;;4997427;28;20177;-80
2022/03/07 11:17:15;;;;;;;16.53;13.37;;;;;;;;;;4997967;28;20541;-82
2022/03/07 11:19:42;;;;;;;18.03;13.20;;;;;;;;;;5001772;28;20181;-81
2022/03/07 11:22:08;;;;;;;16.77;13.77;;;;;;;;;;5000220;28;20214;-81
2022/03/07 11:24:36;;;;;;;16.47;14.27;;;;;;;;;;5001577;28;20186;-80
2022/03/07 11:27:05;;;;;;;13.83;12.50;;;;;;;;;;5002214;28;20192;-80
2022/03/07 11:29:35;;;;;;;17.60;14.77;;;;;;;;;;5002366;28;20259;-81
2022/03/07 11:32:06;;;;;;;15.30;13.50;;;;;;;;;;5002601;28;20182;-80
2022/03/07 11:34:32;;;;;;;18.73;13.67;;;;;;;;;;5003972;28;20177;-80
2022/03/07 11:36:58;;;;;;;16.13;13.47;;;;;;;;;;4991774;28;20183;-80
2022/03/07 11:39:34;;;;;;;13.60;12.20;;;;;;;;;;5008448;28;20189;-81
2022/03/07 11:42:08;;;;;;;17.27;12.87;;;;;;;;;;4990572;28;20197;-83
2022/03/07 11:44:34;;;;;;;14.87;13.00;;;;;;;;;;5008528;28;20179;-81
2022/03/07 11:47:07;;;;;;;15.33;13.70;;;;;;;;;;4984888;28;20218;-81
2022/03/07 11:49:33;;;;;;;16.97;13.60;;;;;;;;;;4996697;28;20211;-80
2022/03/07 11:52:00;;;;;;;14.47;13.03;;;;;;;;;;5001019;28;20179;-80
2022/03/07 11:54:26;;;;;;;16.17;14.13;;;;;;;;;;5005795;28;20182;-80
2022/03/07 11:56:53;;;;;;;15.40;13.33;;;;;;;;;;5004458;28;20193;-79
2022/03/07 11:59:29;;;;;;;16.10;13.97;;;;;;;;;;5005101;28;20654;-82
2022/03/07 12:01:55;;;;;;;14.73;12.80;;;;;;;;;;4977074;28;20185;-82
2022/03/07 12:04:21;;;;;;;13.97;12.47;;;;;;;;;;4986876;28;20189;-81
2022/03/07 12:06:54;;;;;;;15.73;13.57;;;;;;;;;;4986242;28;20250;-80
2022/03/07 12:09:27;;;;;;;16.97;15.00;;;;;;;;;;5002965;28;20206;-81
2022/03/07 12:12:00;;;;;;;18.80;13.07;;;;;;;;;;5002008;28;20206;-82
2022/03/07 12:14:39;;;;;;;14.67;13.20;;;;;;;;;;4985649;28;20195;-80
2022/03/07 12:17:13;;;;;;;18.43;14.00;;;;;;;;;;5002041;28;20191;-81
2022/03/07 12:19:39;;;;;;;18.13;13.60;;;;;;;;;;5007958;28;20185;-82
2022/03/07 12:22:09;;;;;;;14.90;13.30;;;;;;;;;;4988887;28;20198;-80
2022/03/07 12:24:37;;;;;;;14.93;13.27;;;;;;;;;;5000333;28;20193;-82
2022/03/07 12:27:03;;;;;;;14.93;12.37;;;;;;;;;;4996382;28;20260;-82
2022/03/07 12:29:30;;;;;;;17.53;14.40;;;;;;;;;;5004526;28;20627;-82
2022/03/07 12:31:57;;;;;;;15.17;12.73;;;;;;;;;;5004223;28;20199;-82
2022/03/07 12:34:24;;;;;;;16.50;13.90;;;;;;;;;;4985500;28;20186;-83
2022/03/07 12:36:59;;;;;;;16.37;13.57;;;;;;;;;;4986247;28;20194;-82
2022/03/07 12:39:29;;;;;;;16.47;13.60;;;;;;;;;;5003498;28;20188;-82
2022/03/07 12:41:59;;;;;;;17.53;14.13;;;;;;;;;;5003666;28;20286;-83
2022/03/07 12:44:26;;;;;;;16.03;14.03;;;;;;;;;;5066783;23;20230;-82
2022/03/07 12:47:01;;;;;;;14.73;13.17;;;;;;;;;;5001092;28;20207;-84
2022/03/07 12:49:27;;;;;;;15.83;13.43;;;;;;;;;;4982913;28;20215;-83
2022/03/07 12:52:25;;;;;;;17.50;13.97;;;;;;;;;;5003946;28;20647;-83
2022/03/07 12:55:26;;;;;;;15.63;13.93;;;;;;;;;;4960329;28;20216;-83
2022/03/07 12:58:00;;;;;;;16.23;13.83;;;;;;;;;;4978877;28;20568;-83
2022/03/07 13:00:34;;;;;;;14.47;12.93;;;;;;;;;;4982978;28;20195;-83
2022/03/07 13:03:12;;;;;;;17.23;13.33;;;;;;;;;;4979867;28;20284;-84
2022/03/07 13:05:41;;;;;;;16.37;14.17;;;;;;;;;;4964942;28;20212;-83
2022/03/07 13:08:07;;;;;;;14.87;13.00;;;;;;;;;;4982672;28;20234;-82
2022/03/07 13:10:39;;;;;;;15.30;12.97;;;;;;;;;;4982319;28;20258;-82
2022/03/07 13:13:08;;;;;;;16.27;13.47;;;;;;;;;;4983008;28;20187;-83
2022/03/07 13:16:09;;;;;;;15.13;13.37;;;;;;;;;;4964905;28;20207;-83
2022/03/07 13:22:06;;;;;;;16.33;13.20;;;;;;;;;;4903531;29;20234;-83
2022/03/07 13:24:33;;;;;;;15.67;13.37;;;;;;;;;;4977201;28;20276;-81
2022/03/07 13:27:11;;;;;;;14.87;13.33;;;;;;;;;;4980008;28;20181;-86
2022/03/07 13:49:00;;;;;;;15.57;13.13;;;;;;;;;;5111729;23;20228;-82
2022/03/07 13:51:38;;;;;;;15.63;13.40;;;;;;;;;;5002575;28;20182;-83
2022/03/07 13:54:04;;;;;;;15.50;13.90;;;;;;;;;;4999068;28;20167;-84
2022/03/07 13:56:36;;;;;;;15.17;13.33;;;;;;;;;;4983303;28;20267;-84
2022/03/07 13:59:15;;;;;;;14.97;13.33;;;;;;;;;;4982430;28;20184;-83
2022/03/07 14:01:41;;;;;;;15.00;13.40;;;;;;;;;;4981607;28;20247;-83
2022/03/07 14:04:13;;;;;;;14.40;12.77;;;;;;;;;;4981927;28;20200;-82
2022/03/07 14:06:40;;;;;;;16.00;13.23;;;;;;;;;;4982646;28;20188;-82
2022/03/07 14:09:10;;;;;;;15.70;13.80;;;;;;;;;;4986068;28;20671;-83
2022/03/07 14:11:39;;;;;;;14.67;13.00;;;;;;;;;;4969973;28;20194;-82
2022/03/07 14:14:16;;;;;;;15.93;13.00;;;;;;;;;;4984969;28;20306;-83
2022/03/07 14:16:42;;;;;;;15.63;13.43;;;;;;;;;;4982619;28;20180;-83
2022/03/07 14:19:09;;;;;;;15.13;13.37;;;;;;;;;;4981014;28;20199;-84
2022/03/07 14:21:37;;;;;;;25.97;18.63;;;;;;;;;;4982836;28;20191;-82
2022/03/07 14:24:04;;;;;;;14.73;13.13;;;;;;;;;;4981903;28;20189;-82
2022/03/07 14:26:31;;;;;;;16.03;13.07;;;;;;;;;;4981840;28;20192;-82
2022/03/07 14:29:08;;;;;;;18.67;13.57;;;;;;;;;;4964545;28;20211;-83
2022/03/07 14:31:35;;;;;;;14.13;12.63;;;;;;;;;;4980815;28;20176;-83
2022/03/07 14:34:03;;;;;;;19.13;16.87;;;;;;;;;;4981436;28;20172;-83
2022/03/07 14:36:32;;;;;;;19.30;15.87;;;;;;;;;;4980813;28;20181;-83
2022/03/07 14:38:59;;;;;;;15.43;13.60;;;;;;;;;;4968757;28;20224;-83
2022/03/07 14:41:25;;;;;;;15.47;13.87;;;;;;;;;;4981281;28;20188;-83
2022/03/07 14:43:53;;;;;;;18.77;15.87;;;;;;;;;;4977692;28;20219;-83